createdAt,value
2022-10-31T00:00:09.461Z,101229.56
2022-10-31T00:02:41.403Z,101233.25
2022-10-31T00:05:12.911Z,101229.56
2022-10-31T00:07:44.722Z,101230.44
2022-10-31T00:10:16.221Z,101233.75
2022-10-31T00:12:48.077Z,101238.50
2022-10-31T00:15:19.610Z,101235.66
2022-10-31T00:17:51.457Z,101241.19
2022-10-31T00:20:22.954Z,101240.75
2022-10-31T00:22:54.480Z,101242.59
2022-10-31T00:25:26.005Z,101238.47
2022-10-31T00:27:58.053Z,101238.66
2022-10-31T00:30:29.957Z,101246.25
2022-10-31T00:33:02.178Z,101250.22
2022-10-31T00:35:33.909Z,101252.28
2022-10-31T00:38:05.465Z,101257.97
2022-10-31T00:40:36.992Z,101258.19
2022-10-31T00:43:08.814Z,101262.13
2022-10-31T00:45:40.398Z,101262.13
2022-10-31T00:48:12.295Z,101265.44
2022-10-31T00:50:43.820Z,101266.47
2022-10-31T00:53:15.836Z,101271.41
2022-10-31T00:55:47.322Z,101263.41
2022-10-31T00:58:19.190Z,101277.38
2022-10-31T01:00:57.124Z,101261.75
2022-10-31T01:03:29.077Z,101277.19
2022-10-31T01:06:00.592Z,101277.63
2022-10-31T01:08:32.461Z,101278.66
2022-10-31T01:11:03.956Z,101277.00
2022-10-31T01:13:35.807Z,101281.53
2022-10-31T01:16:07.360Z,101277.81
2022-10-31T01:18:39.223Z,101279.88
2022-10-31T01:21:10.784Z,101286.88
2022-10-31T01:23:42.673Z,101279.88
2022-10-31T01:26:14.182Z,101282.38
2022-10-31T01:28:46.121Z,101273.75
2022-10-31T01:31:17.645Z,101276.84
2022-10-31T01:33:49.434Z,101270.72
2022-10-31T01:36:20.979Z,101275.25
2022-10-31T01:38:52.866Z,101275.06
2022-10-31T01:41:24.393Z,101284.72
2022-10-31T01:43:56.421Z,101277.94
2022-10-31T01:46:27.914Z,101266.44
2022-10-31T01:48:59.724Z,101271.38
2022-10-31T01:51:31.220Z,101274.28
2022-10-31T01:54:03.135Z,101280.81
2022-10-31T01:56:34.630Z,101288.63
2022-10-31T01:59:06.512Z,101290.47
2022-10-31T02:01:38.099Z,101286.56
2022-10-31T02:04:10.133Z,101285.75
2022-10-31T02:06:41.636Z,101279.53
2022-10-31T02:09:13.430Z,101286.25
2022-10-31T02:11:44.919Z,101289.75
2022-10-31T02:14:16.914Z,101284.63
2022-10-31T02:16:48.399Z,101287.91
2022-10-31T02:19:20.407Z,101289.16
2022-10-31T02:21:51.952Z,101288.94
2022-10-31T02:24:23.824Z,101290.34
2022-10-31T02:26:55.314Z,101293.84
2022-10-31T02:29:27.130Z,101281.53
2022-10-31T02:31:58.645Z,101289.31
2022-10-31T02:34:30.493Z,101287.69
2022-10-31T02:37:01.998Z,101281.53
2022-10-31T02:39:33.870Z,101288.31
2022-10-31T02:42:05.652Z,101296.38
2022-10-31T02:44:37.201Z,101300.09
2022-10-31T02:47:08.731Z,101305.44
2022-10-31T02:49:40.247Z,101301.53
2022-10-31T02:52:11.997Z,101308.34
2022-10-31T02:54:43.492Z,101306.28
2022-10-31T02:57:15.408Z,101315.28
2022-10-31T02:59:46.987Z,101305.00
2022-10-31T03:02:18.981Z,101308.91
2022-10-31T03:04:50.564Z,101306.63
2022-10-31T03:07:22.550Z,101320.19
2022-10-31T03:09:54.176Z,101313.41
2022-10-31T03:12:26.000Z,101310.72
2022-10-31T03:14:57.498Z,101320.78
2022-10-31T03:17:29.362Z,101321.81
2022-10-31T03:20:00.861Z,101323.06
2022-10-31T03:22:32.921Z,101332.50
2022-10-31T03:25:04.433Z,101333.13
2022-10-31T03:27:36.308Z,101329.22
2022-10-31T03:30:08.771Z,101331.69
2022-10-31T03:32:40.688Z,101341.97
2022-10-31T03:35:12.213Z,101337.03
2022-10-31T03:37:44.346Z,101345.25
2022-10-31T03:40:15.827Z,101346.09
2022-10-31T03:42:47.651Z,101348.97
2022-10-31T03:45:19.155Z,101356.75
2022-10-31T03:47:50.937Z,101357.19
2022-10-31T03:50:22.414Z,101361.50
2022-10-31T03:52:54.345Z,101356.56
2022-10-31T03:55:25.838Z,101360.47
2022-10-31T03:57:58.102Z,101366.03
2022-10-31T04:00:29.934Z,101360.06
2022-10-31T04:03:02.089Z,101367.47
2022-10-31T04:05:33.842Z,101362.56
2022-10-31T04:08:05.653Z,101358.41
2022-10-31T04:10:37.170Z,101373.00
2022-10-31T04:13:09.195Z,101371.75
2022-10-31T04:15:41.134Z,101365.22
2022-10-31T04:18:12.623Z,101365.22
2022-10-31T04:20:44.422Z,101360.69
2022-10-31T04:23:15.928Z,101359.88
2022-10-31T04:25:47.722Z,101369.72
2022-10-31T04:30:55.986Z,101374.03
2022-10-31T04:33:27.504Z,101380.00
2022-10-31T04:35:59.339Z,101377.53
2022-10-31T04:38:30.812Z,101378.97
2022-10-31T04:41:02.668Z,101378.56
2022-10-31T04:43:34.169Z,101380.63
2022-10-31T04:46:05.987Z,101384.72
2022-10-31T04:48:37.482Z,101386.78
2022-10-31T04:51:09.339Z,101383.09
2022-10-31T04:53:40.912Z,101382.03
2022-10-31T04:56:12.686Z,101377.13
2022-10-31T04:58:44.200Z,101382.25
2022-10-31T05:01:16.190Z,101384.91
2022-10-31T05:03:47.789Z,101387.16
2022-10-31T05:06:19.301Z,101393.72
2022-10-31T05:08:50.789Z,101386.34
2022-10-31T05:11:22.557Z,101388.19
2022-10-31T05:13:54.063Z,101390.84
2022-10-31T05:16:26.012Z,101392.69
2022-10-31T05:18:57.514Z,101388.41
2022-10-31T05:21:29.429Z,101388.41
2022-10-31T05:24:00.927Z,101402.75
2022-10-31T05:26:32.742Z,101402.13
2022-10-31T05:29:04.326Z,101399.25
2022-10-31T05:31:36.356Z,101399.47
2022-10-31T05:34:07.859Z,101407.66
2022-10-31T05:36:39.516Z,101402.34
2022-10-31T05:39:11.004Z,101406.03
2022-10-31T05:41:42.531Z,101403.38
2022-10-31T05:44:14.140Z,101410.53
2022-10-31T05:46:45.999Z,101403.97
2022-10-31T05:49:18.405Z,101408.91
2022-10-31T05:51:50.067Z,101403.78
2022-10-31T05:54:21.572Z,101407.66
2022-10-31T05:56:53.381Z,101412.19
2022-10-31T05:59:24.983Z,101407.03
2022-10-31T06:01:56.908Z,101407.25
2022-10-31T06:04:28.499Z,101407.25
2022-10-31T06:07:00.027Z,101411.56
2022-10-31T06:09:31.545Z,101415.47
2022-10-31T06:12:03.059Z,101421.00
2022-10-31T06:14:34.908Z,101419.97
2022-10-31T06:17:06.881Z,101418.94
2022-10-31T06:19:38.441Z,101416.50
2022-10-31T06:22:12.402Z,101420.59
2022-10-31T06:24:43.884Z,101422.03
2022-10-31T06:27:15.845Z,101422.84
2022-10-31T06:29:47.403Z,101429.00
2022-10-31T06:32:18.953Z,101431.88
2022-10-31T06:34:50.467Z,101435.63
2022-10-31T06:37:21.970Z,101439.31
2022-10-31T06:39:53.888Z,101451.00
2022-10-31T06:42:25.428Z,101451.00
2022-10-31T06:44:56.948Z,101448.75
2022-10-31T06:47:28.440Z,101445.91
2022-10-31T06:49:59.979Z,101453.69
2022-10-31T06:52:31.486Z,101459.84
2022-10-31T06:55:03.021Z,101463.13
2022-10-31T06:57:34.549Z,101459.84
2022-10-31T07:00:06.086Z,101457.34
2022-10-31T07:02:37.595Z,101454.06
2022-10-31T07:05:09.117Z,101462.66
2022-10-31T07:07:40.615Z,101465.53
2022-10-31T07:12:43.905Z,101466.63
2022-10-31T07:15:15.394Z,101470.16
2022-10-31T07:17:46.911Z,101463.94
2022-10-31T07:20:18.525Z,101473.63
2022-10-31T07:22:50.846Z,101465.69
2022-10-31T07:25:22.468Z,101473.56
2022-10-31T07:27:53.953Z,101472.56
2022-10-31T07:30:25.781Z,101480.28
2022-10-31T07:32:57.290Z,101483.94
2022-10-31T07:35:29.255Z,101484.47
2022-10-31T07:38:00.939Z,101473.47
2022-10-31T07:40:33.092Z,101484.84
2022-10-31T07:43:05.025Z,101485.59
2022-10-31T07:45:38.518Z,101485.97
2022-10-31T07:48:10.006Z,101486.72
2022-10-31T07:50:41.571Z,101487.53
2022-10-31T07:53:13.113Z,101496.78
2022-10-31T07:55:44.699Z,101490.81
2022-10-31T07:58:16.340Z,101495.72
2022-10-31T08:00:47.995Z,101501.72
2022-10-31T08:03:19.608Z,101504.41
2022-10-31T08:05:51.144Z,101504.59
2022-10-31T08:08:22.642Z,101500.34
2022-10-31T08:10:54.493Z,101497.44
2022-10-31T08:13:26.716Z,101501.28
2022-10-31T08:15:58.560Z,101496.97
2022-10-31T08:18:30.168Z,101511.44
2022-10-31T08:21:01.935Z,101504.31
2022-10-31T08:23:33.453Z,101506.31
2022-10-31T08:26:07.029Z,101510.50
2022-10-31T08:28:38.512Z,101512.03
2022-10-31T08:31:11.064Z,101518.56
2022-10-31T08:33:42.568Z,101515.56
2022-10-31T08:36:14.078Z,101515.47
2022-10-31T08:38:45.556Z,101511.56
2022-10-31T08:41:17.037Z,101516.22
2022-10-31T08:43:48.499Z,101512.84
2022-10-31T08:46:20.003Z,101507.81
2022-10-31T08:48:51.517Z,101510.91
2022-10-31T08:51:23.052Z,101503.13
2022-10-31T08:53:54.538Z,101514.31
2022-10-31T08:56:26.023Z,101518.03
2022-10-31T08:58:57.801Z,101511.47
2022-10-31T09:01:29.485Z,101522.31
2022-10-31T09:04:01.126Z,101524.59
2022-10-31T09:06:33.023Z,101521.03
2022-10-31T09:09:04.530Z,101523.31
2022-10-31T09:11:42.090Z,101523.72
2022-10-31T09:14:13.609Z,101533.16
2022-10-31T09:16:45.358Z,101532.47
2022-10-31T09:19:17.852Z,101536.59
2022-10-31T09:21:49.813Z,101530.84
2022-10-31T09:24:21.323Z,101533.00
2022-10-31T09:26:52.820Z,101539.63
2022-10-31T09:29:24.342Z,101530.56
2022-10-31T09:31:55.856Z,101540.53
2022-10-31T09:34:27.395Z,101526.31
2022-10-31T09:36:59.383Z,101540.03
2022-10-31T09:39:30.892Z,101536.91
2022-10-31T09:42:02.778Z,101537.75
2022-10-31T09:44:34.264Z,101544.63
2022-10-31T09:47:06.052Z,101547.06
2022-10-31T09:49:38.812Z,101552.25
2022-10-31T09:54:47.167Z,101545.88
2022-10-31T09:57:18.656Z,101542.41
2022-10-31T09:59:50.227Z,101550.63
2022-10-31T10:02:21.765Z,101551.81
2022-10-31T10:04:53.386Z,101554.53
2022-10-31T10:07:24.956Z,101556.63
2022-10-31T10:09:56.535Z,101547.47
2022-10-31T10:12:28.029Z,101537.38
2022-10-31T10:14:59.905Z,101526.13
2022-10-31T10:17:32.773Z,101525.13
2022-10-31T10:20:04.326Z,101527.56
2022-10-31T10:22:35.895Z,101530.53
2022-10-31T10:25:07.816Z,101529.19
2022-10-31T10:27:39.315Z,101522.72
2022-10-31T10:30:10.804Z,101525.66
2022-10-31T10:32:42.286Z,101518.84
2022-10-31T10:35:14.149Z,101518.25
2022-10-31T10:37:45.624Z,101516.84
2022-10-31T10:40:17.245Z,101509.75
2022-10-31T10:43:07.494Z,101518.69
2022-10-31T10:45:57.709Z,101514.00
2022-10-31T10:48:29.197Z,101513.44
2022-10-31T10:51:01.161Z,101504.47
2022-10-31T10:53:33.492Z,101513.09
2022-10-31T10:56:05.362Z,101513.91
2022-10-31T10:58:38.284Z,101509.66
2022-10-31T11:01:10.224Z,101507.19
2022-10-31T11:03:41.886Z,101507.44
2022-10-31T11:06:13.693Z,101507.50
2022-10-31T11:08:45.197Z,101504.06
2022-10-31T11:11:17.075Z,101504.69
2022-10-31T11:13:48.613Z,101506.44
2022-10-31T11:16:20.127Z,101500.53
2022-10-31T11:18:51.602Z,101502.09
2022-10-31T11:21:23.106Z,101497.97
2022-10-31T11:23:54.580Z,101495.44
2022-10-31T11:26:29.537Z,101491.56
2022-10-31T11:29:01.067Z,101491.91
2022-10-31T11:31:34.252Z,101485.72
2022-10-31T11:34:05.859Z,101493.97
2022-10-31T11:36:37.363Z,101488.91
2022-10-31T11:39:08.842Z,101482.91
2022-10-31T11:41:40.694Z,101483.28
2022-10-31T11:44:12.172Z,101484.09
2022-10-31T11:46:44.026Z,101481.59
2022-10-31T11:49:15.615Z,101489.41
2022-10-31T11:51:47.431Z,101486.16
2022-10-31T11:54:18.920Z,101476.69
2022-10-31T11:56:50.402Z,101483.06
2022-10-31T11:59:21.881Z,101480.31
2022-10-31T12:01:53.538Z,101472.00
2022-10-31T12:04:25.410Z,101480.06
2022-10-31T12:06:56.972Z,101476.91
2022-10-31T12:09:28.894Z,101467.72
2022-10-31T12:12:00.371Z,101469.88
2022-10-31T12:14:33.340Z,101465.59
2022-10-31T12:17:04.814Z,101463.00
2022-10-31T12:19:36.607Z,101459.19
2022-10-31T12:22:10.200Z,101459.44
2022-10-31T12:24:42.005Z,101463.16
2022-10-31T12:27:13.923Z,101457.81
2022-10-31T12:29:45.716Z,101458.06
2022-10-31T12:32:17.236Z,101456.25
2022-10-31T12:34:49.576Z,101449.78
2022-10-31T12:37:21.148Z,101449.78
2022-10-31T12:39:53.048Z,101450.66
2022-10-31T12:42:24.513Z,101449.88
2022-10-31T12:44:56.051Z,101445.28
2022-10-31T12:47:27.555Z,101448.13
2022-10-31T12:49:59.391Z,101437.84
2022-10-31T12:52:32.226Z,101440.53
2022-10-31T12:55:04.516Z,101434.34
2022-10-31T12:57:37.107Z,101437.41
2022-10-31T13:00:08.639Z,101436.09
2022-10-31T13:02:40.138Z,101437.72
2022-10-31T13:05:12.014Z,101434.47
2022-10-31T13:07:44.342Z,101436.63
2022-10-31T13:10:15.984Z,101427.19
2022-10-31T13:12:47.545Z,101432.81
2022-10-31T13:15:20.071Z,101433.38
2022-10-31T13:17:51.565Z,101419.03
2022-10-31T13:20:23.235Z,101424.19
2022-10-31T13:22:57.085Z,101423.66
2022-10-31T13:25:28.980Z,101420.38
2022-10-31T13:28:00.634Z,101420.13
2022-10-31T13:30:32.112Z,101421.50
2022-10-31T13:33:04.149Z,101411.22
2022-10-31T13:35:36.854Z,101416.88
2022-10-31T13:38:08.321Z,101364.00
2022-10-31T13:40:40.191Z,101411.50
2022-10-31T13:43:11.893Z,101405.56
2022-10-31T13:45:43.878Z,101415.78
2022-10-31T13:48:15.361Z,101401.44
2022-10-31T13:50:47.223Z,101405.75
2022-10-31T13:53:18.743Z,101394.28
2022-10-31T13:55:50.554Z,101400.56
2022-10-31T13:58:22.040Z,101394.19
2022-10-31T14:00:53.551Z,101394.66
2022-10-31T14:03:49.400Z,101398.63
2022-10-31T14:06:16.916Z,101386.66
2022-10-31T14:08:48.389Z,101381.22
2022-10-31T14:11:20.288Z,101386.06
2022-10-31T14:13:51.777Z,101384.97
2022-10-31T14:16:23.589Z,101384.06
2022-10-31T14:18:55.059Z,101383.63
2022-10-31T14:21:26.847Z,101374.63
2022-10-31T14:23:58.419Z,101383.53
2022-10-31T14:26:29.955Z,101379.66
2022-10-31T14:29:01.597Z,101385.00
2022-10-31T14:31:33.086Z,101381.69
2022-10-31T14:34:04.704Z,101373.78
2022-10-31T14:36:36.241Z,101372.81
2022-10-31T14:39:08.321Z,101372.97
2022-10-31T14:41:40.086Z,101381.78
2022-10-31T14:44:11.585Z,101368.59
2022-10-31T14:46:43.404Z,101365.50
2022-10-31T14:49:15.536Z,101364.38
2022-10-31T14:51:47.272Z,101362.38
2022-10-31T14:54:18.757Z,101370.63
2022-10-31T14:56:50.716Z,101365.66
2022-10-31T14:59:22.219Z,101367.09
2022-10-31T15:01:55.033Z,101368.41
2022-10-31T15:04:26.615Z,101365.06
2022-10-31T15:06:58.151Z,101362.78
2022-10-31T15:09:29.723Z,101362.31
2022-10-31T15:12:01.665Z,101365.00
2022-10-31T15:14:33.297Z,101366.41
2022-10-31T15:17:05.507Z,101364.06
2022-10-31T15:19:39.178Z,101364.94
2022-10-31T15:22:10.654Z,101357.25
2022-10-31T15:24:42.670Z,101362.22
2022-10-31T15:27:14.261Z,101359.91
2022-10-31T15:29:45.791Z,101353.88
2022-10-31T15:32:17.563Z,101350.16
2022-10-31T15:34:49.478Z,101362.09
2022-10-31T15:37:21.085Z,101359.78
2022-10-31T15:39:52.560Z,101357.97
2022-10-31T15:42:24.188Z,101355.75
2022-10-31T15:44:55.715Z,101356.69
2022-10-31T15:47:27.243Z,101349.53
2022-10-31T15:49:59.188Z,101355.28
2022-10-31T15:52:30.713Z,101352.72
2022-10-31T15:55:02.280Z,101355.06
2022-10-31T15:57:33.778Z,101356.03
2022-10-31T16:00:05.570Z,101369.34
2022-10-31T16:02:37.136Z,101370.50
2022-10-31T16:05:09.173Z,101359.88
2022-10-31T16:07:40.648Z,101358.13
2022-10-31T16:10:12.877Z,101357.09
2022-10-31T16:12:44.341Z,101354.03
2022-10-31T16:15:16.150Z,101360.91
2022-10-31T16:17:47.646Z,101352.38
2022-10-31T16:20:20.669Z,101367.31
2022-10-31T16:22:52.154Z,101360.78
2022-10-31T16:25:23.781Z,101360.88
2022-10-31T16:27:55.319Z,101355.63
2022-10-31T16:30:26.866Z,101353.41
2022-10-31T16:32:59.530Z,101356.75
2022-10-31T16:35:31.550Z,101359.91
2022-10-31T16:38:03.085Z,101360.38
2022-10-31T16:40:34.621Z,101359.63
2022-10-31T16:43:06.120Z,101351.91
2022-10-31T16:45:38.053Z,101353.41
2022-10-31T16:48:09.517Z,101351.19
2022-10-31T16:50:41.426Z,101350.81
2022-10-31T16:53:15.545Z,101346.75
2022-10-31T16:55:47.503Z,101341.81
2022-10-31T16:58:18.988Z,101346.56
2022-10-31T17:00:50.726Z,101340.63
2022-10-31T17:03:22.262Z,101338.41
2022-10-31T17:05:56.398Z,101339.66
2022-10-31T17:08:27.908Z,101340.50
2022-10-31T17:10:59.792Z,101340.34
2022-10-31T17:13:31.263Z,101341.63
2022-10-31T17:16:03.480Z,101340.22
2022-10-31T17:18:34.953Z,101333.44
2022-10-31T17:21:07.202Z,101215.28
2022-10-31T17:23:38.708Z,101330.63
2022-10-31T17:26:10.883Z,101336.81
2022-10-31T17:28:42.434Z,101331.69
2022-10-31T17:31:14.211Z,101331.91
2022-10-31T17:33:46.147Z,101324.09
2022-10-31T17:36:17.669Z,101322.69
2022-10-31T17:38:49.512Z,101323.13
2022-10-31T17:41:21.025Z,101321.69
2022-10-31T17:43:52.822Z,101320.66
2022-10-31T17:46:24.357Z,101315.31
2022-10-31T17:48:55.860Z,101317.16
2022-10-31T17:51:27.475Z,101315.53
2022-10-31T17:53:59.322Z,101317.63
2022-10-31T17:56:30.853Z,101321.56
2022-10-31T17:59:02.714Z,101317.47
2022-10-31T18:01:34.370Z,101316.06
2022-10-31T18:04:06.429Z,101323.97
2022-10-31T18:06:37.880Z,101327.91
2022-10-31T18:09:09.842Z,101327.31
2022-10-31T18:11:41.323Z,101318.69
2022-10-31T18:14:13.105Z,101321.59
2022-10-31T18:16:44.987Z,101317.50
2022-10-31T18:19:17.027Z,101318.19
2022-10-31T18:21:48.487Z,101312.44
2022-10-31T18:24:20.339Z,101311.00
2022-10-31T18:26:51.790Z,101314.72
2022-10-31T18:29:23.270Z,101310.41
2022-10-31T18:31:55.239Z,101316.00
2022-10-31T18:34:27.260Z,101316.81
2022-10-31T18:36:58.745Z,101307.16
2022-10-31T18:39:30.675Z,101307.97
2022-10-31T18:42:02.148Z,101292.50
2022-10-31T18:44:34.735Z,101297.41
2022-10-31T18:47:06.216Z,101298.44
2022-10-31T18:49:38.221Z,101303.38
2022-10-31T18:52:09.765Z,101300.91
2022-10-31T18:54:41.599Z,101296.59
2022-10-31T18:57:13.261Z,101296.81
2022-10-31T18:59:45.036Z,101293.31
2022-10-31T19:02:17.780Z,101292.50
2022-10-31T19:04:49.760Z,101294.13
2022-10-31T19:07:21.267Z,101290.41
2022-10-31T19:09:52.747Z,101290.41
2022-10-31T19:12:24.338Z,101289.00
2022-10-31T19:14:56.282Z,101282.22
2022-10-31T19:17:27.749Z,101285.94
2022-10-31T19:19:59.507Z,101279.78
2022-10-31T19:22:31.122Z,101277.31
2022-10-31T19:25:06.237Z,101268.25
2022-10-31T19:27:41.784Z,101266.38
2022-10-31T19:30:13.401Z,101278.13
2022-10-31T19:32:44.989Z,101269.88
2022-10-31T19:35:16.968Z,101271.50
2022-10-31T19:37:48.428Z,101255.44
2022-10-31T19:40:20.201Z,101258.34
2022-10-31T19:42:51.665Z,101255.22
2022-10-31T19:45:23.514Z,101256.25
2022-10-31T19:47:55.041Z,101251.72
2022-10-31T19:50:28.222Z,101249.63
2022-10-31T19:53:00.633Z,101247.19
2022-10-31T19:55:32.470Z,101243.47
2022-10-31T19:58:04.402Z,101245.09
2022-10-31T20:00:35.930Z,101239.38
2022-10-31T20:03:07.867Z,101233.81
2022-10-31T20:05:39.337Z,101235.44
2022-10-31T20:08:10.822Z,101230.31
2022-10-31T20:10:42.291Z,101226.00
2022-10-31T20:13:15.202Z,101227.84
2022-10-31T20:15:46.678Z,101217.97
2022-10-31T20:18:18.180Z,101222.72
2022-10-31T20:20:49.965Z,101224.22
2022-10-31T20:23:21.796Z,101223.03
2022-10-31T20:25:53.278Z,101214.41
2022-10-31T20:28:24.773Z,101213.59
2022-10-31T20:30:56.282Z,101209.47
2022-10-31T20:33:28.121Z,101210.09
2022-10-31T20:35:59.613Z,101210.53
2022-10-31T20:38:31.477Z,101217.72
2022-10-31T20:41:02.957Z,101212.38
2022-10-31T20:43:34.978Z,101210.75
2022-10-31T20:46:06.556Z,101204.56
2022-10-31T20:48:38.403Z,101203.53
2022-10-31T20:51:09.991Z,101206.22
2022-10-31T20:53:41.929Z,101196.31
2022-10-31T20:56:13.406Z,101197.59
2022-10-31T20:58:45.211Z,101198.63
2022-10-31T21:01:16.840Z,101198.03
2022-10-31T21:03:50.638Z,101200.13
2022-10-31T21:06:23.257Z,101195.81
2022-10-31T21:08:55.142Z,101196.84
2022-10-31T21:11:26.657Z,101191.72
2022-10-31T21:13:58.543Z,101197.91
2022-10-31T21:16:31.000Z,101196.47
2022-10-31T21:19:03.379Z,101195.44
2022-10-31T21:21:34.921Z,101192.38
2022-10-31T21:24:07.050Z,101186.88
2022-10-31T21:26:38.609Z,101174.97
2022-10-31T21:29:10.477Z,101174.41
2022-10-31T21:31:41.976Z,101169.94
2022-10-31T21:34:13.959Z,101161.75
2022-10-31T21:36:45.460Z,101162.81
2022-10-31T21:39:17.512Z,101162.00
2022-10-31T21:41:48.983Z,101164.06
2022-10-31T21:44:20.806Z,101165.94
2022-10-31T21:46:52.289Z,101153.22
2022-10-31T21:49:24.127Z,101145.03
2022-10-31T21:51:55.611Z,101143.63
2022-10-31T21:54:27.532Z,101150.81
2022-10-31T21:56:59.339Z,101147.56
2022-10-31T21:59:30.871Z,101158.69
2022-10-31T22:02:02.930Z,101150.69
2022-10-31T22:04:34.691Z,101157.06
2022-10-31T22:07:06.462Z,101157.50
2022-10-31T22:09:38.898Z,101151.34
2022-10-31T22:12:10.983Z,101151.56
2022-10-31T22:17:14.127Z,101143.63
2022-10-31T22:19:45.978Z,101148.16
2022-10-31T22:22:17.787Z,101153.13
2022-10-31T22:24:49.340Z,101146.59
2022-10-31T22:27:21.246Z,101144.94
2022-10-31T22:29:56.395Z,101145.38
2022-10-31T22:32:28.305Z,101135.72
2022-10-31T22:34:59.812Z,101139.03
2022-10-31T22:37:31.634Z,101134.13
2022-10-31T22:40:03.471Z,101130.66
2022-10-31T22:42:35.363Z,101130.88
2022-10-31T22:45:06.819Z,101119.59
2022-10-31T22:47:38.793Z,101116.69
2022-10-31T22:50:10.352Z,101111.72
2022-10-31T22:52:42.235Z,101108.00
2022-10-31T22:55:15.385Z,101092.56
2022-10-31T22:57:47.158Z,101087.84
2022-10-31T23:00:18.646Z,101091.91
2022-10-31T23:02:50.155Z,101082.88
2022-10-31T23:05:21.624Z,101084.03
2022-10-31T23:07:53.442Z,101084.78
2022-10-31T23:10:33.061Z,101078.78
2022-10-31T23:13:23.582Z,101078.47
2022-10-31T23:15:55.057Z,101083.13
2022-10-31T23:18:48.576Z,101071.34
2022-10-31T23:21:37.597Z,101077.41
2022-10-31T23:24:09.081Z,101067.91
2022-10-31T23:27:00.054Z,101067.22
2022-10-31T23:29:31.554Z,101063.88
2022-10-31T23:32:03.390Z,101063.63
2022-10-31T23:34:34.862Z,101063.19
2022-10-31T23:39:39.067Z,101058.19
2022-10-31T23:42:10.984Z,101052.03
2022-10-31T23:44:42.522Z,101040.84
2022-10-31T23:47:14.368Z,101040.28
2022-10-31T23:49:45.879Z,101039.81
2022-10-31T23:52:17.779Z,101037.38
2022-10-31T23:54:49.260Z,101033.41
2022-10-31T23:57:21.134Z,101024.97
2022-10-31T23:59:52.707Z,101015.50
